Time;durP1;ratioP1;P1;durP2;ratioP2;P2;SDS_P1;SDS_P2;PMS_P1;PMS_P2;Temp;Humidity;BMP_temperature;BMP_pressure;BME280_temperature;BME280_humidity;BME280_pressure;Samples;Min_cycle;Max_cycle;Signal;HPM_P1;HPM_P2
2020/12/30 00:02:36;;;;;;;79.15;51.05;;;;;;;9.28;100.00;100811.16;5098234;28;20023;-78
2020/12/30 00:05:22;;;;;;;85.90;52.15;;;;;;;9.04;100.00;100808.78;5114521;28;20039;-77
2020/12/30 00:08:08;;;;;;;85.65;51.90;;;;;;;8.87;100.00;100810.69;5113328;28;20035;-77
2020/12/30 00:10:54;;;;;;;78.82;50.58;;;;;;;8.88;100.00;100817.69;5114657;28;20039;-77
2020/12/30 00:13:39;;;;;;;79.15;48.40;;;;;;;8.74;100.00;100815.19;5099278;28;20074;-78
2020/12/30 00:16:25;;;;;;;80.57;50.90;;;;;;;8.81;100.00;100824.66;5099908;28;20038;-76
2020/12/30 00:19:11;;;;;;;79.45;48.63;;;;;;;9.12;100.00;100835.72;5098451;28;20034;-77
2020/12/30 00:21:56;;;;;;;84.82;52.95;;;;;;;8.71;100.00;100838.72;5100024;28;20108;-77
2020/12/30 00:24:42;;;;;;;87.38;54.40;;;;;;;8.35;100.00;100835.47;5114127;28;20444;-77
2020/12/30 00:27:28;;;;;;;77.70;50.60;;;;;;;8.44;100.00;100841.50;5114126;28;20062;-76
2020/12/30 00:30:16;;;;;;;77.40;50.13;;;;;;;8.63;100.00;100837.00;5113569;28;20070;-76
2020/12/30 00:33:02;;;;;;;83.13;50.72;;;;;;;8.76;100.00;100838.69;5113985;28;20375;-78
2020/12/30 00:35:48;;;;;;;77.18;49.65;;;;;;;8.49;100.00;100829.28;5114173;28;20024;-76
2020/12/30 00:38:34;;;;;;;74.65;46.65;;;;;;;8.71;100.00;100837.81;5118325;28;20054;-76
2020/12/30 00:41:20;;;;;;;68.95;44.33;;;;;;;8.62;100.00;100838.78;5117696;28;20413;-76
2020/12/30 00:44:07;;;;;;;65.53;42.30;;;;;;;8.54;100.00;100831.88;5117993;28;20020;-77
2020/12/30 00:46:56;;;;;;;60.00;39.10;;;;;;;8.41;100.00;100833.69;5117872;28;20116;-77
2020/12/30 00:49:42;;;;;;;62.08;38.67;;;;;;;8.46;100.00;100836.28;5117140;28;20024;-76
2020/12/30 00:52:28;;;;;;;65.72;40.22;;;;;;;8.62;100.00;100832.69;5117953;28;20122;-78
2020/12/30 00:55:14;;;;;;;62.65;39.10;;;;;;;8.76;100.00;100834.31;5103000;28;20030;-77
2020/12/30 00:57:59;;;;;;;71.32;40.83;;;;;;;8.84;100.00;100844.72;5102519;28;20406;-76
2020/12/30 01:00:45;;;;;;;59.60;38.17;;;;;;;8.68;100.00;100840.50;5116981;28;20167;-76
2020/12/30 01:03:32;;;;;;;63.47;40.83;;;;;;;8.84;100.00;100839.47;5117525;28;20448;-78
2020/12/30 01:06:17;;;;;;;67.25;41.70;;;;;;;8.80;100.00;100829.94;5116997;28;20043;-78
2020/12/30 01:09:06;;;;;;;63.97;41.13;;;;;;;8.61;100.00;100828.34;5117600;28;20447;-77
2020/12/30 01:11:54;;;;;;;69.30;40.20;;;;;;;8.78;100.00;100829.94;5102560;28;20069;-77
2020/12/30 01:14:40;;;;;;;63.50;40.35;;;;;;;8.95;100.00;100827.16;5116569;28;20364;-77
2020/12/30 01:17:26;;;;;;;62.17;39.28;;;;;;;8.53;100.00;100815.31;5103091;28;20059;-77
2020/12/30 01:20:12;;;;;;;63.55;38.67;;;;;;;8.55;100.00;100820.53;5116214;28;20448;-77
2020/12/30 01:22:58;;;;;;;61.15;39.40;;;;;;;8.63;100.00;100822.22;5100938;28;20031;-77
2020/12/30 01:25:43;;;;;;;64.05;39.40;;;;;;;8.71;100.00;100820.41;5116688;28;20055;-77
2020/12/30 01:28:29;;;;;;;69.35;40.92;;;;;;;8.45;100.00;100824.13;5102787;28;20023;-76
2020/12/30 01:31:15;;;;;;;63.70;39.10;;;;;;;8.70;100.00;100823.91;5100983;28;20462;-76
2020/12/30 01:34:02;;;;;;;58.42;37.00;;;;;;;8.57;100.00;100818.81;5117305;28;20023;-76
2020/12/30 01:36:52;;;;;;;55.22;35.15;;;;;;;8.40;100.00;100810.22;5116923;28;20042;-77
2020/12/30 01:39:38;;;;;;;54.25;34.25;;;;;;;7.92;100.00;100820.94;5117544;28;20028;-78
2020/12/30 01:42:23;;;;;;;52.85;32.70;;;;;;;8.24;100.00;100812.06;5116586;28;20043;-76
2020/12/30 01:45:09;;;;;;;53.22;32.70;;;;;;;8.35;100.00;100817.22;5102512;28;20058;-76
2020/12/30 01:47:55;;;;;;;51.67;31.77;;;;;;;8.24;100.00;100811.22;5116161;28;20023;-77
2020/12/30 01:50:42;;;;;;;55.60;33.95;;;;;;;8.37;100.00;100807.63;5116349;28;20055;-76
2020/12/30 01:53:28;;;;;;;51.78;33.55;;;;;;;8.41;100.00;100814.56;5101264;28;20379;-75
2020/12/30 01:56:16;;;;;;;59.45;36.47;;;;;;;8.29;100.00;100819.88;5102265;28;20028;-77
2020/12/30 01:59:05;;;;;;;54.13;34.83;;;;;;;8.71;100.00;100816.94;5115561;28;20027;-77
2020/12/30 02:02:04;;;;;;;57.67;38.17;;;;;;;8.43;100.00;100811.06;5100983;28;20122;-77
2020/12/30 02:04:53;;;;;;;64.88;40.03;;;;;;;8.26;100.00;100819.88;5102184;28;20035;-76
2020/12/30 02:07:41;;;;;;;63.05;40.33;;;;;;;8.02;100.00;100820.00;5114937;28;20057;-76
2020/12/30 02:10:27;;;;;;;61.13;36.30;;;;;;;7.83;100.00;100826.19;5115943;28;20055;-77
2020/12/30 02:13:13;;;;;;;52.47;33.33;;;;;;;7.79;100.00;100817.50;5116984;28;20034;-76
2020/12/30 02:16:00;;;;;;;53.47;32.70;;;;;;;7.82;100.00;100819.25;5116709;28;20036;-77
2020/12/30 02:18:46;;;;;;;56.92;35.50;;;;;;;7.67;100.00;100816.72;5116750;28;20088;-77
2020/12/30 02:21:32;;;;;;;56.53;33.85;;;;;;;7.44;100.00;100811.56;5116732;28;20133;-76
2020/12/30 02:24:28;;;;;;;59.13;35.90;;;;;;;7.55;100.00;100808.94;5101612;28;20031;-76
2020/12/30 02:27:13;;;;;;;59.08;35.72;;;;;;;7.64;100.00;100808.91;5115943;28;20518;-77
2020/12/30 02:29:59;;;;;;;55.22;36.00;;;;;;;7.49;100.00;100799.41;5115987;28;20065;-77
2020/12/30 02:32:46;;;;;;;58.15;36.20;;;;;;;7.54;100.00;100794.16;5115835;28;20046;-77
2020/12/30 02:35:32;;;;;;;52.83;31.95;;;;;;;7.41;100.00;100789.88;5115967;28;20058;-77
2020/12/30 02:38:22;;;;;;;50.92;32.25;;;;;;;7.23;100.00;100792.56;5115881;28;20023;-76
2020/12/30 02:41:08;;;;;;;47.67;30.30;;;;;;;7.41;100.00;100790.75;5115510;28;20035;-76
2020/12/30 02:43:54;;;;;;;45.92;28.15;;;;;;;7.64;100.00;100801.09;5115526;28;20035;-77
2020/12/30 02:46:40;;;;;;;43.72;27.70;;;;;;;6.96;100.00;100790.00;5100793;28;20027;-76
2020/12/30 02:49:26;;;;;;;41.42;25.95;;;;;;;7.31;100.00;100785.56;5115587;28;20359;-77
2020/12/30 02:52:11;;;;;;;42.13;26.58;;;;;;;7.41;100.00;100782.94;5115191;28;20099;-76
2020/12/30 02:54:57;;;;;;;44.95;26.70;;;;;;;7.47;100.00;100776.84;5114782;28;20024;-76
2020/12/30 02:57:43;;;;;;;41.17;25.70;;;;;;;7.62;100.00;100781.97;5115592;28;20161;-76
2020/12/30 03:00:29;;;;;;;41.05;26.73;;;;;;;7.55;100.00;100772.44;5112892;28;20118;-76
2020/12/30 03:03:14;;;;;;;37.50;24.60;;;;;;;7.09;100.00;100770.84;5115364;28;20020;-77
2020/12/30 03:06:00;;;;;;;39.25;25.75;;;;;;;7.43;100.00;100762.06;5100366;28;20020;-77
2020/12/30 03:08:46;;;;;;;37.40;26.02;;;;;;;7.62;100.00;100772.41;5114075;28;20039;-76
2020/12/30 03:11:31;;;;;;;38.03;25.88;;;;;;;7.42;100.00;100775.97;5114294;28;20033;-77
2020/12/30 03:14:19;;;;;;;38.92;25.38;;;;;;;7.14;100.00;100761.28;5115166;28;20467;-77
2020/12/30 03:17:04;;;;;;;38.85;25.83;;;;;;;7.32;100.00;100759.47;5115425;28;20040;-77
2020/12/30 03:19:50;;;;;;;38.78;26.08;;;;;;;7.78;100.00;100753.19;5114434;28;20455;-76
2020/12/30 03:22:36;;;;;;;40.00;25.63;;;;;;;7.74;100.00;100746.28;5100036;28;20117;-76
2020/12/30 03:25:22;;;;;;;36.05;24.38;;;;;;;7.66;100.00;100749.78;5113842;28;20042;-77
2020/12/30 03:28:07;;;;;;;37.10;23.40;;;;;;;7.66;100.00;100744.56;5116277;28;20015;-76
2020/12/30 03:30:53;;;;;;;40.15;24.42;;;;;;;7.95;100.00;100735.69;5115080;28;20088;-78
2020/12/30 03:33:39;;;;;;;34.10;23.52;;;;;;;7.78;100.00;100742.75;5114973;28;20088;-77
2020/12/30 03:36:24;;;;;;;37.08;23.83;;;;;;;8.00;100.00;100730.47;5113993;28;20058;-76
2020/12/30 03:39:10;;;;;;;37.20;24.45;;;;;;;7.69;100.00;100718.47;5114880;28;20081;-77
2020/12/30 03:41:56;;;;;;;37.80;23.38;;;;;;;8.01;100.00;100724.34;5100089;28;20047;-78
2020/12/30 03:44:42;;;;;;;38.20;23.20;;;;;;;7.59;100.00;100725.47;5100427;28;20027;-77
2020/12/30 03:47:30;;;;;;;34.58;23.95;;;;;;;7.79;100.00;100720.13;5114782;28;20032;-77
2020/12/30 03:50:16;;;;;;;36.50;23.45;;;;;;;7.77;100.00;100706.25;5098483;28;20120;-77
2020/12/30 03:53:01;;;;;;;32.65;22.33;;;;;;;8.01;100.00;100704.38;5113937;28;20077;-76
2020/12/30 03:55:47;;;;;;;33.78;23.08;;;;;;;8.05;100.00;100708.69;5114463;28;20459;-77
2020/12/30 03:58:33;;;;;;;36.53;22.58;;;;;;;7.99;100.00;100705.22;5113847;28;20055;-77
2020/12/30 04:01:19;;;;;;;33.20;22.83;;;;;;;7.81;100.00;100694.94;5114309;28;20027;-78
2020/12/30 04:04:04;;;;;;;38.10;24.15;;;;;;;8.23;100.00;100692.91;5114190;28;20023;-78
2020/12/30 04:06:50;;;;;;;33.60;22.17;;;;;;;8.15;100.00;100691.19;5113485;28;20110;-77
2020/12/30 04:09:36;;;;;;;34.33;22.90;;;;;;;8.52;100.00;100697.88;5115174;28;20077;-77
2020/12/30 04:12:21;;;;;;;29.63;21.27;;;;;;;8.54;100.00;100691.75;5117336;28;20098;-78
2020/12/30 04:15:07;;;;;;;33.38;22.08;;;;;;;8.48;100.00;100696.16;5118770;28;20111;-75
2020/12/30 04:17:53;;;;;;;33.55;22.92;;;;;;;8.45;100.00;100691.81;5117938;28;20471;-77
2020/12/30 04:20:39;;;;;;;40.75;23.52;;;;;;;8.66;100.00;100682.91;5101687;28;20023;-77
2020/12/30 04:23:24;;;;;;;32.83;22.20;;;;;;;8.47;100.00;100681.34;5118469;28;20360;-77
2020/12/30 04:26:11;;;;;;;33.22;20.45;;;;;;;8.96;100.00;100690.44;5118439;28;20105;-76
2020/12/30 04:28:57;;;;;;;36.03;21.90;;;;;;;9.08;100.00;100678.06;5102665;28;20372;-77
2020/12/30 04:31:42;;;;;;;36.45;21.75;;;;;;;9.03;100.00;100676.41;5117992;28;20023;-77
2020/12/30 04:34:28;;;;;;;38.90;22.88;;;;;;;8.54;100.00;100678.69;5118056;28;20025;-76
2020/12/30 04:37:14;;;;;;;33.28;19.85;;;;;;;8.60;100.00;100683.84;5117076;28;20463;-77
2020/12/30 04:40:00;;;;;;;32.72;21.25;;;;;;;8.54;100.00;100680.44;5119053;28;20110;-76
2020/12/30 04:42:49;;;;;;;34.45;20.60;;;;;;;8.56;100.00;100678.69;5117783;28;20048;-77
2020/12/30 04:45:35;;;;;;;33.63;20.48;;;;;;;8.61;100.00;100672.50;5117629;28;20050;-77
2020/12/30 04:48:24;;;;;;;30.83;20.23;;;;;;;8.43;100.00;100677.06;5117772;28;20028;-76
2020/12/30 04:51:11;;;;;;;30.83;21.30;;;;;;;8.41;100.00;100686.66;5117939;28;20024;-76
2020/12/30 04:53:59;;;;;;;33.53;20.67;;;;;;;7.96;100.00;100690.47;5118422;28;20520;-76
2020/12/30 04:56:58;;;;;;;33.30;21.75;;;;;;;8.37;100.00;100698.84;5117352;28;20032;-77
2020/12/30 04:59:45;;;;;;;33.92;22.75;;;;;;;8.25;100.00;100704.22;5117019;28;20031;-75
2020/12/30 05:02:35;;;;;;;32.45;22.77;;;;;;;8.72;100.00;100701.16;5118008;28;20042;-75
2020/12/30 05:05:21;;;;;;;36.17;23.98;;;;;;;8.17;100.00;100695.53;5117950;28;20027;-76
2020/12/30 05:08:12;;;;;;;35.22;23.90;;;;;;;8.41;100.00;100697.09;5117103;28;20101;-76
2020/12/30 05:10:59;;;;;;;36.65;23.75;;;;;;;8.39;100.00;100691.88;5117785;28;20038;-76
2020/12/30 05:13:45;;;;;;;34.50;23.23;;;;;;;8.49;100.00;100687.44;5102673;28;20016;-76
2020/12/30 05:16:30;;;;;;;41.78;24.90;;;;;;;8.15;100.00;100692.06;5103484;28;20024;-77
2020/12/30 05:19:16;;;;;;;36.75;25.65;;;;;;;8.04;100.00;100693.03;5102679;28;20030;-77
2020/12/30 05:22:02;;;;;;;42.50;26.17;;;;;;;8.32;100.00;100691.97;5103153;28;20463;-77
2020/12/30 05:24:48;;;;;;;39.10;24.55;;;;;;;8.46;100.00;100688.34;5116701;28;20176;-76
2020/12/30 05:27:36;;;;;;;36.60;25.02;;;;;;;8.47;100.00;100686.59;5103443;28;20038;-76
2020/12/30 05:30:23;;;;;;;40.05;25.70;;;;;;;8.12;100.00;100694.69;5102219;28;20062;-77
2020/12/30 05:33:09;;;;;;;39.95;24.70;;;;;;;7.69;100.00;100681.97;5116334;28;20375;-76
2020/12/30 05:35:59;;;;;;;43.53;27.27;;;;;;;7.84;100.00;100684.50;5117214;28;20016;-76
2020/12/30 05:38:45;;;;;;;41.42;26.10;;;;;;;7.50;100.00;100689.03;5117155;28;20016;-75
2020/12/30 05:41:31;;;;;;;41.28;26.08;;;;;;;7.97;100.00;100691.34;5117081;28;20062;-76
2020/12/30 05:44:19;;;;;;;37.65;26.02;;;;;;;7.67;100.00;100691.56;5117328;28;20024;-77
2020/12/30 05:47:28;;;;;;;40.83;28.15;;;;;;;8.00;100.00;100696.53;5117603;28;20345;-77
2020/12/30 05:50:24;;;;;;;40.70;25.80;;;;;;;8.23;100.00;100700.72;5116790;28;20059;-77
2020/12/30 05:53:13;;;;;;;50.33;34.22;;;;;;;8.12;100.00;100696.44;5116230;28;20035;-77
2020/12/30 05:56:09;;;;;;;47.78;29.17;;;;;;;7.92;100.00;100696.59;5115789;28;20039;-77
2020/12/30 05:58:56;;;;;;;44.15;29.85;;;;;;;8.12;100.00;100697.31;5117090;28;20038;-76
2020/12/30 06:01:44;;;;;;;43.00;28.65;;;;;;;7.76;100.00;100692.34;5116374;28;20359;-77
2020/12/30 06:04:30;;;;;;;47.70;29.65;;;;;;;8.34;100.00;100693.69;5116049;28;20088;-77
2020/12/30 06:07:17;;;;;;;44.83;29.35;;;;;;;8.15;100.00;100693.78;5116535;28;20080;-76
2020/12/30 06:10:04;;;;;;;43.90;29.48;;;;;;;8.29;100.00;100690.25;5116850;28;20032;-77
2020/12/30 06:13:01;;;;;;;41.72;28.05;;;;;;;8.34;100.00;100703.25;5116309;28;20038;-77
2020/12/30 06:15:49;;;;;;;43.25;28.63;;;;;;;8.33;100.00;100697.16;5115863;28;20076;-77
2020/12/30 06:18:39;;;;;;;47.75;31.83;;;;;;;8.53;100.00;100710.03;5115637;28;20065;-76
2020/12/30 06:21:26;;;;;;;47.53;30.75;;;;;;;8.49;100.00;100703.13;5115130;28;20478;-76
2020/12/30 06:24:14;;;;;;;49.17;30.92;;;;;;;8.01;100.00;100687.84;5114587;28;20353;-76
2020/12/30 06:27:06;;;;;;;55.03;32.00;;;;;;;8.45;100.00;100696.19;5116014;28;20027;-76
2020/12/30 06:29:56;;;;;;;57.80;31.33;;;;;;;8.35;100.00;100704.97;5115124;28;20024;-77
2020/12/30 06:32:42;;;;;;;59.70;32.95;;;;;;;8.47;100.00;100708.34;5101312;28;20024;-76
2020/12/30 06:35:30;;;;;;;49.88;30.73;;;;;;;8.66;100.00;100709.91;5100797;28;20020;-76
2020/12/30 06:38:26;;;;;;;48.38;31.73;;;;;;;8.47;100.00;100707.47;5115806;28;20367;-78
2020/12/30 06:41:11;;;;;;;46.28;31.73;;;;;;;8.85;100.00;100700.97;5115913;28;20191;-77
2020/12/30 06:43:57;;;;;;;49.95;31.70;;;;;;;8.72;100.00;100712.44;5114875;28;20136;-76
2020/12/30 06:46:43;;;;;;;51.42;34.50;;;;;;;8.44;100.00;100716.19;5116040;28;20032;-77
2020/12/30 06:49:29;;;;;;;53.92;34.67;;;;;;;8.76;100.00;100715.91;5100599;28;20046;-78
2020/12/30 06:52:25;;;;;;;51.05;33.25;;;;;;;9.03;100.00;100708.63;5100215;28;20020;-76
2020/12/30 06:55:14;;;;;;;51.88;31.95;;;;;;;9.08;100.00;100700.72;5114999;28;20020;-76
2020/12/30 06:57:59;;;;;;;58.05;36.25;;;;;;;9.02;100.00;100692.97;5116238;28;20352;-77
2020/12/30 07:00:56;;;;;;;52.05;33.97;;;;;;;8.96;100.00;100690.44;5115251;28;20035;-76
2020/12/30 07:03:42;;;;;;;52.92;33.75;;;;;;;8.87;100.00;100696.63;5114847;28;20034;-77
2020/12/30 07:06:34;;;;;;;61.53;35.15;;;;;;;9.05;100.00;100701.63;5114271;28;20027;-76
2020/12/30 07:09:35;;;;;;;56.53;33.90;;;;;;;9.08;100.00;100708.56;5100458;28;20059;-76
2020/12/30 07:12:21;;;;;;;54.85;33.60;;;;;;;9.14;100.00;100714.59;5115107;28;20081;-76
2020/12/30 07:15:07;;;;;;;56.92;34.85;;;;;;;9.12;100.00;100718.09;5115289;28;20098;-77
2020/12/30 07:17:55;;;;;;;65.45;36.08;;;;;;;9.40;100.00;100704.69;5114509;28;20049;-76
2020/12/30 07:20:41;;;;;;;68.03;40.35;;;;;;;9.63;100.00;100702.63;5114205;28;20034;-75
2020/12/30 07:23:27;;;;;;;70.60;41.20;;;;;;;9.29;100.00;100710.94;5099562;28;20023;-76
2020/12/30 07:26:20;;;;;;;67.55;39.67;;;;;;;9.98;100.00;100709.97;5114814;28;20032;-76
2020/12/30 07:29:12;;;;;;;62.72;36.20;;;;;;;9.85;100.00;100703.19;5114038;28;20046;-76
2020/12/30 07:32:00;;;;;;;68.18;37.05;;;;;;;10.09;100.00;100713.31;5114622;28;20027;-75
2020/12/30 07:34:50;;;;;;;65.88;33.95;;;;;;;10.05;100.00;100706.41;5100201;28;20388;-76
2020/12/30 07:37:37;;;;;;;75.38;35.38;;;;;;;10.24;100.00;100699.13;5114713;28;20062;-76
2020/12/30 07:40:23;;;;;;;63.75;34.88;;;;;;;10.06;100.00;100703.75;5114910;28;20027;-76
2020/12/30 07:43:08;;;;;;;64.38;38.95;;;;;;;10.16;100.00;100703.63;5099073;28;20376;-76
2020/12/30 07:46:13;;;;;;;70.07;39.03;;;;;;;10.25;100.00;100698.22;5113335;28;20430;-76
2020/12/30 07:49:22;;;;;;;66.03;39.15;;;;;;;10.54;100.00;100699.47;5114529;28;20050;-75
2020/12/30 07:52:09;;;;;;;57.03;35.72;;;;;;;10.83;100.00;100693.69;5100213;28;20037;-76
2020/12/30 07:54:54;;;;;;;56.97;34.08;;;;;;;10.95;100.00;100693.44;5114050;28;20020;-77
2020/12/30 07:57:40;;;;;;;67.03;34.97;;;;;;;11.21;100.00;100697.28;5114581;28;20023;-76
2020/12/30 08:00:29;;;;;;;55.50;34.08;;;;;;;11.27;100.00;100694.53;5113606;28;20039;-75
2020/12/30 08:03:15;;;;;;;66.43;37.88;;;;;;;11.01;100.00;100688.94;5114011;28;20027;-76
2020/12/30 08:06:01;;;;;;;73.20;42.65;;;;;;;11.25;100.00;100698.09;5114483;28;20031;-76
2020/12/30 08:08:49;;;;;;;64.07;38.85;;;;;;;11.94;100.00;100697.44;5114241;28;20035;-76
2020/12/30 08:11:35;;;;;;;77.32;41.58;;;;;;;12.49;100.00;100699.56;5099412;28;20404;-77
2020/12/30 08:14:22;;;;;;;66.90;37.13;;;;;;;12.85;100.00;100696.84;5113435;28;20023;-75
2020/12/30 08:17:10;;;;;;;58.05;34.70;;;;;;;12.57;100.00;100706.38;5114082;28;20416;-76
2020/12/30 08:19:56;;;;;;;49.67;33.53;;;;;;;13.41;100.00;100701.44;5112908;28;20032;-76
2020/12/30 08:22:41;;;;;;;48.53;33.33;;;;;;;12.99;100.00;100707.03;5113830;28;20024;-77
2020/12/30 08:25:27;;;;;;;44.40;30.27;;;;;;;12.81;100.00;100704.84;5113915;28;20549;-77
2020/12/30 08:28:13;;;;;;;44.75;30.70;;;;;;;12.97;100.00;100703.53;5113347;28;20103;-76
2020/12/30 08:31:02;;;;;;;44.80;28.70;;;;;;;13.52;100.00;100701.97;5113193;28;20035;-76
2020/12/30 08:33:51;;;;;;;46.42;30.00;;;;;;;13.97;100.00;100702.34;5113074;28;20058;-76
2020/12/30 08:36:41;;;;;;;48.17;29.80;;;;;;;13.86;100.00;100702.66;5098937;28;20020;-77
2020/12/30 08:39:29;;;;;;;37.40;24.80;;;;;;;13.70;100.00;100700.53;5099427;28;20032;-78
2020/12/30 08:42:31;;;;;;;36.08;24.27;;;;;;;14.11;100.00;100698.34;5112871;28;20063;-76
2020/12/30 08:45:27;;;;;;;39.75;23.88;;;;;;;14.15;100.00;100697.34;5113317;28;20035;-80
2020/12/30 08:48:14;;;;;;;31.50;22.38;;;;;;;14.01;100.00;100702.19;5112807;28;20085;-80
2020/12/30 08:51:05;;;;;;;33.72;22.65;;;;;;;14.45;100.00;100699.00;5113859;28;20023;-79
2020/12/30 08:53:51;;;;;;;40.72;24.60;;;;;;;14.44;100.00;100697.25;5114003;28;20422;-77
2020/12/30 08:57:29;;;;;;;36.08;23.55;;;;;;;14.86;100.00;100694.09;5113846;28;20020;-81
2020/12/30 09:00:20;;;;;;;34.47;24.52;;;;;;;15.14;100.00;100694.84;5020149;28;20044;-78
2020/12/30 09:03:13;;;;;;;33.08;23.17;;;;;;;15.43;100.00;100690.22;5118007;28;20046;-76
2020/12/30 09:05:59;;;;;;;34.55;22.95;;;;;;;15.57;100.00;100690.56;5117683;28;20028;-77
2020/12/30 09:08:44;;;;;;;38.65;22.85;;;;;;;15.82;100.00;100686.06;5117533;28;20024;-77
2020/12/30 09:11:30;;;;;;;33.97;22.05;;;;;;;15.98;100.00;100678.38;5118943;28;20027;-76
2020/12/30 09:14:18;;;;;;;35.00;22.38;;;;;;;16.14;100.00;100676.81;5102337;28;20020;-77
2020/12/30 09:17:11;;;;;;;31.38;21.30;;;;;;;16.47;100.00;100673.69;5116626;28;20015;-77
2020/12/30 09:20:30;;;;;;;34.13;23.83;;;;;;;16.49;100.00;100668.34;5101668;28;20336;-77
2020/12/30 09:23:20;;;;;;;38.17;23.73;;;;;;;16.61;100.00;100673.97;5097390;28;20040;-77
2020/12/30 09:26:06;;;;;;;38.60;24.85;;;;;;;16.61;100.00;100671.34;5116542;28;20055;-77
2020/12/30 09:28:51;;;;;;;46.95;25.88;;;;;;;16.49;100.00;100668.34;5116166;28;20038;-77
2020/12/30 09:31:37;;;;;;;39.90;25.63;;;;;;;16.42;100.00;100673.03;5117166;28;20093;-77
2020/12/30 09:34:26;;;;;;;41.92;24.30;;;;;;;16.21;100.00;100668.59;5116220;28;20028;-77
2020/12/30 09:37:22;;;;;;;36.20;21.10;;;;;;;15.51;100.00;100666.19;5116521;28;20458;-77
2020/12/30 09:40:11;;;;;;;35.90;23.48;;;;;;;15.25;100.00;100668.88;5104896;28;20035;-76
2020/12/30 09:43:18;;;;;;;29.55;21.33;;;;;;;15.19;100.00;100669.13;5104681;28;20341;-77
2020/12/30 09:46:05;;;;;;;31.45;22.95;;;;;;;15.06;100.00;100666.06;5121395;28;20031;-78
2020/12/30 09:48:51;;;;;;;32.33;21.88;;;;;;;15.17;100.00;100661.25;5107001;28;20040;-77
2020/12/30 09:51:37;;;;;;;38.50;23.95;;;;;;;14.90;100.00;100654.34;5121689;28;20455;-75
2020/12/30 09:54:25;;;;;;;35.97;24.70;;;;;;;15.05;100.00;100647.66;5120596;28;20035;-78
2020/12/30 09:57:11;;;;;;;32.47;25.15;;;;;;;14.82;100.00;100646.72;5120216;28;20398;-77
2020/12/30 09:59:57;;;;;;;33.67;23.20;;;;;;;15.14;100.00;100628.88;5122060;28;20024;-76
2020/12/30 10:02:43;;;;;;;32.17;22.27;;;;;;;15.22;100.00;100624.16;5108182;28;20028;-75
2020/12/30 10:05:31;;;;;;;34.40;23.50;;;;;;;15.25;100.00;100618.75;5115362;28;20020;-76
2020/12/30 10:08:16;;;;;;;35.90;25.20;;;;;;;15.06;100.00;100610.66;5116288;28;20019;-76
2020/12/30 10:11:02;;;;;;;39.92;24.10;;;;;;;15.40;100.00;100610.28;5100908;28;20405;-76
2020/12/30 10:13:48;;;;;;;45.50;30.77;;;;;;;15.50;100.00;100619.53;5100717;28;20517;-77
2020/12/30 10:16:34;;;;;;;42.15;29.77;;;;;;;15.57;100.00;100615.75;5101438;28;20107;-76
2020/12/30 10:19:19;;;;;;;69.90;45.22;;;;;;;15.73;100.00;100616.88;5115297;28;20027;-76
2020/12/30 10:22:07;;;;;;;63.83;44.78;;;;;;;15.60;100.00;100613.88;5101047;28;20051;-76
2020/12/30 10:24:53;;;;;;;55.95;38.90;;;;;;;15.86;100.00;100613.69;5115306;28;20115;-76
2020/12/30 10:27:40;;;;;;;55.83;36.03;;;;;;;16.11;100.00;100603.81;5100759;28;20376;-78
2020/12/30 10:30:26;;;;;;;54.38;34.85;;;;;;;16.24;100.00;100605.00;5100099;28;20463;-76
2020/12/30 10:33:11;;;;;;;55.08;35.33;;;;;;;16.27;100.00;100601.41;5101194;28;20027;-78
2020/12/30 10:35:57;;;;;;;52.08;34.15;;;;;;;16.51;100.00;100603.88;5116021;28;20089;-78
2020/12/30 10:38:43;;;;;;;49.22;35.20;;;;;;;16.34;100.00;100601.06;5100732;28;20382;-77
2020/12/30 10:41:35;;;;;;;54.67;39.47;;;;;;;16.33;100.00;100609.94;5099045;28;20066;-76
2020/12/30 10:44:21;;;;;;;62.53;41.50;;;;;;;16.28;100.00;100606.59;5100626;28;20027;-77
2020/12/30 10:47:07;;;;;;;76.45;50.70;;;;;;;15.74;100.00;100603.59;5115094;28;20074;-77
2020/12/30 10:49:53;;;;;;;72.38;48.45;;;;;;;15.90;100.00;100604.69;5115338;28;20027;-77
2020/12/30 10:52:38;;;;;;;67.70;43.35;;;;;;;15.77;100.00;100594.69;5101137;28;20026;-78
2020/12/30 10:55:24;;;;;;;66.15;41.08;;;;;;;16.23;100.00;100597.16;5114012;28;20059;-77
2020/12/30 10:58:10;;;;;;;61.38;41.28;;;;;;;16.61;100.00;100597.28;5115466;28;20035;-77
2020/12/30 11:00:56;;;;;;;62.50;40.60;;;;;;;16.42;100.00;100588.41;5114452;28;20023;-77
2020/12/30 11:03:42;;;;;;;60.88;40.65;;;;;;;16.35;100.00;100592.19;5114795;28;20341;-78
2020/12/30 11:06:28;;;;;;;63.50;40.95;;;;;;;16.36;100.00;100582.50;5115412;28;20034;-77
2020/12/30 11:09:14;;;;;;;63.03;40.95;;;;;;;16.45;100.00;100572.41;5113625;28;20039;-77
2020/12/30 11:11:59;;;;;;;63.00;41.53;;;;;;;16.56;100.00;100583.34;5113483;28;20019;-76
2020/12/30 11:14:45;;;;;;;66.00;41.67;;;;;;;15.87;100.00;100577.56;5099129;28;20110;-77
2020/12/30 11:17:31;;;;;;;60.45;39.60;;;;;;;15.84;100.00;100567.97;5113616;28;20019;-76
2020/12/30 11:20:17;;;;;;;57.22;38.72;;;;;;;15.93;100.00;100566.72;5114190;28;20035;-75
2020/12/30 11:23:03;;;;;;;54.05;36.58;;;;;;;16.45;100.00;100567.13;5114720;28;20023;-75
2020/12/30 11:25:51;;;;;;;51.08;34.10;;;;;;;16.46;100.00;100567.97;5114503;28;20024;-76
2020/12/30 11:28:37;;;;;;;56.13;34.58;;;;;;;16.36;100.00;100566.63;5102114;28;20023;-77
2020/12/30 11:31:23;;;;;;;54.88;32.55;;;;;;;16.55;100.00;100567.59;5115654;28;20030;-77
2020/12/30 11:34:12;;;;;;;56.78;33.92;;;;;;;16.45;100.00;100563.59;5114585;28;20049;-77
2020/12/30 11:36:58;;;;;;;48.53;31.58;;;;;;;16.37;100.00;100555.13;5115133;28;20028;-77
2020/12/30 11:39:44;;;;;;;53.47;30.55;;;;;;;15.68;100.00;100555.44;5103748;28;20028;-76
2020/12/30 11:42:29;;;;;;;41.90;29.45;;;;;;;16.05;100.00;100553.00;5117301;28;20043;-75
2020/12/30 11:45:15;;;;;;;52.58;34.47;;;;;;;15.91;100.00;100555.38;5118309;28;20023;-77
2020/12/30 11:48:03;;;;;;;53.30;31.48;;;;;;;16.12;100.00;100559.75;5114426;28;20019;-76
2020/12/30 11:50:48;;;;;;;53.92;31.48;;;;;;;16.09;100.00;100555.44;5113531;28;20027;-77
2020/12/30 11:53:34;;;;;;;46.65;30.27;;;;;;;16.12;100.00;100550.00;5099114;28;20028;-77
2020/12/30 11:56:21;;;;;;;42.00;27.38;;;;;;;15.96;100.00;100548.97;5099622;28;20027;-78
2020/12/30 11:59:07;;;;;;;37.53;25.17;;;;;;;16.39;100.00;100551.47;5113235;28;20031;-76
2020/12/30 12:01:53;;;;;;;50.03;26.92;;;;;;;15.98;100.00;100551.53;5113957;28;20098;-78
2020/12/30 12:04:39;;;;;;;41.58;25.52;;;;;;;16.36;100.00;100556.88;5098414;28;20051;-76
2020/12/30 12:07:24;;;;;;;43.03;25.27;;;;;;;16.00;100.00;100547.91;5114023;28;20027;-76
2020/12/30 12:10:11;;;;;;;40.58;24.55;;;;;;;15.94;100.00;100542.88;5113678;28;20050;-76
2020/12/30 12:12:56;;;;;;;45.67;25.25;;;;;;;16.34;100.00;100544.66;5115332;28;20020;-77
2020/12/30 12:15:42;;;;;;;41.22;22.52;;;;;;;16.11;100.00;100550.09;5113935;28;20034;-75
2020/12/30 12:18:28;;;;;;;51.72;27.55;;;;;;;15.79;100.00;100547.97;5100603;28;20031;-75
2020/12/30 12:21:14;;;;;;;42.45;24.35;;;;;;;16.25;100.00;100553.88;5113385;28;20074;-76
2020/12/30 12:24:00;;;;;;;47.03;24.83;;;;;;;16.44;100.00;100553.97;5114343;28;20071;-76
2020/12/30 12:26:45;;;;;;;45.00;24.98;;;;;;;16.52;100.00;100554.50;5114059;28;20023;-76
2020/12/30 12:29:34;;;;;;;47.65;25.13;;;;;;;16.53;100.00;100549.13;5114988;28;20015;-75
2020/12/30 12:32:25;;;;;;;45.35;23.67;;;;;;;16.50;100.00;100548.38;5114559;28;20047;-76
2020/12/30 12:35:10;;;;;;;43.28;24.30;;;;;;;16.54;100.00;100537.63;5102912;28;20055;-76
2020/12/30 12:38:08;;;;;;;46.55;24.73;;;;;;;16.60;100.00;100547.06;5121312;28;20027;-75
2020/12/30 12:40:54;;;;;;;51.08;28.10;;;;;;;16.64;100.00;100546.00;5113152;28;20039;-76